Time;durP1;ratioP1;P1;durP2;ratioP2;P2;SDS_P1;SDS_P2;PMS_P1;PMS_P2;Temp;Humidity;BMP_temperature;BMP_pressure;BME280_temperature;BME280_humidity;BME280_pressure;Samples;Min_cycle;Max_cycle;Signal;HPM_P1;HPM_P2
2023/05/21 04:02:56;;;;;;;1999.90;999.90;;;;;;;;;;4914752;29;20254;-71
2023/05/21 04:05:42;;;;;;;1999.90;999.90;;;;;;;;;;4914339;29;20210;-69
2023/05/21 04:08:26;;;;;;;1999.90;999.90;;;;;;;;;;4911832;29;20702;-67
2023/05/21 04:11:12;;;;;;;1999.90;999.90;;;;;;;;;;4912754;29;20278;-69
2023/05/21 04:13:57;;;;;;;1999.90;999.90;;;;;;;;;;4914721;29;20261;-69
2023/05/21 04:16:42;;;;;;;1999.90;999.90;;;;;;;;;;4915157;29;21230;-70
2023/05/21 04:19:29;;;;;;;1999.90;999.90;;;;;;;;;;4912625;29;20222;-71
2023/05/21 04:22:14;;;;;;;1999.90;999.90;;;;;;;;;;4915298;29;20287;-71
2023/05/21 04:24:59;;;;;;;1999.90;999.90;;;;;;;;;;4915185;29;20222;-71
2023/05/21 04:27:46;;;;;;;1999.90;999.90;;;;;;;;;;4912540;29;20286;-69
2023/05/21 04:30:34;;;;;;;1999.90;999.90;;;;;;;;;;4915102;29;20213;-71
2023/05/21 04:33:19;;;;;;;1999.90;999.90;;;;;;;;;;4914388;29;20233;-69
2023/05/21 04:36:08;;;;;;;1999.90;999.90;;;;;;;;;;4915487;29;20726;-71
2023/05/21 04:38:53;;;;;;;1999.90;999.90;;;;;;;;;;4915040;29;20218;-71
2023/05/21 04:41:38;;;;;;;1999.90;999.90;;;;;;;;;;4910681;29;20424;-67
2023/05/21 04:44:23;;;;;;;1999.90;999.90;;;;;;;;;;4909579;29;20210;-69
2023/05/21 04:47:09;;;;;;;1999.90;999.90;;;;;;;;;;4907595;29;20290;-70
2023/05/21 04:49:54;;;;;;;1999.90;999.90;;;;;;;;;;4915219;29;20214;-70
2023/05/21 04:52:40;;;;;;;1999.90;999.90;;;;;;;;;;4912201;29;20746;-71
2023/05/21 04:55:26;;;;;;;1999.90;999.90;;;;;;;;;;4911422;29;20217;-72
2023/05/21 04:58:11;;;;;;;1999.90;999.90;;;;;;;;;;4914994;29;20573;-68
2023/05/21 05:00:56;;;;;;;1999.90;999.90;;;;;;;;;;4912060;29;20310;-69
2023/05/21 05:03:41;;;;;;;1999.90;999.90;;;;;;;;;;4915031;29;20221;-70
2023/05/21 05:06:26;;;;;;;1999.90;999.90;;;;;;;;;;4911661;29;20213;-70
2023/05/21 05:09:13;;;;;;;1999.90;999.90;;;;;;;;;;4912933;29;20226;-69
2023/05/21 05:11:58;;;;;;;1999.90;999.90;;;;;;;;;;4918499;29;20939;-70
2023/05/21 05:14:43;;;;;;;1999.90;999.90;;;;;;;;;;4915908;29;20419;-68
2023/05/21 05:17:28;;;;;;;1999.90;999.90;;;;;;;;;;4918614;29;20280;-71
2023/05/21 05:20:12;;;;;;;1999.90;999.90;;;;;;;;;;4915685;29;20206;-70
2023/05/21 05:22:57;;;;;;;1999.90;999.90;;;;;;;;;;4918295;29;20209;-69
2023/05/21 05:25:43;;;;;;;1999.90;999.90;;;;;;;;;;4918489;29;20734;-70
2023/05/21 05:28:28;;;;;;;1999.90;999.90;;;;;;;;;;4915036;29;20226;-69
2023/05/21 05:31:13;;;;;;;1999.90;999.90;;;;;;;;;;4918298;29;20234;-71
2023/05/21 05:33:58;;;;;;;1999.90;999.90;;;;;;;;;;4918096;29;20213;-69
2023/05/21 05:36:43;;;;;;;1999.90;999.90;;;;;;;;;;4914828;29;20573;-70
2023/05/21 05:39:28;;;;;;;1999.90;999.90;;;;;;;;;;4915724;29;20739;-71
2023/05/21 05:42:14;;;;;;;1999.90;999.90;;;;;;;;;;4917729;29;20241;-71
2023/05/21 05:44:59;;;;;;;1999.90;999.90;;;;;;;;;;4912530;29;20221;-70
2023/05/21 05:47:45;;;;;;;1999.90;999.90;;;;;;;;;;4910052;29;20230;-70
2023/05/21 05:50:29;;;;;;;1999.90;999.90;;;;;;;;;;4899283;29;20315;-71
2023/05/21 05:53:15;;;;;;;1999.90;999.90;;;;;;;;;;4899870;29;20202;-70
2023/05/21 05:55:59;;;;;;;1999.90;999.90;;;;;;;;;;4899743;29;20210;-72
2023/05/21 05:58:46;;;;;;;1999.90;999.90;;;;;;;;;;4899485;29;20706;-69
2023/05/21 06:01:31;;;;;;;1999.90;999.90;;;;;;;;;;4899501;29;20728;-71
2023/05/21 06:04:15;;;;;;;1999.90;999.90;;;;;;;;;;4899724;29;20537;-71
2023/05/21 06:07:00;;;;;;;1999.90;999.90;;;;;;;;;;4899279;29;20226;-71
2023/05/21 06:09:45;;;;;;;1999.90;999.90;;;;;;;;;;4899126;29;20215;-71
2023/05/21 06:12:30;;;;;;;1999.90;999.90;;;;;;;;;;4908626;29;20289;-70
2023/05/21 06:15:18;;;;;;;1999.90;999.90;;;;;;;;;;4918112;29;20330;-70
2023/05/21 06:18:03;;;;;;;1999.90;999.90;;;;;;;;;;4914281;29;20585;-70
2023/05/21 06:20:48;;;;;;;1999.90;999.90;;;;;;;;;;4915834;29;20465;-71
2023/05/21 06:23:35;;;;;;;1999.90;999.90;;;;;;;;;;4912627;29;20588;-71
2023/05/21 06:26:20;;;;;;;1999.90;999.90;;;;;;;;;;4918406;29;20588;-70
2023/05/21 06:29:05;;;;;;;1999.90;999.90;;;;;;;;;;4917723;29;20209;-70
2023/05/21 06:31:52;;;;;;;1999.90;999.90;;;;;;;;;;4917900;29;20225;-71
2023/05/21 06:34:37;;;;;;;1999.90;999.90;;;;;;;;;;4917881;29;20286;-70
2023/05/21 06:37:21;;;;;;;1999.90;999.90;;;;;;;;;;4917750;29;20206;-71
2023/05/21 06:40:07;;;;;;;1999.90;999.90;;;;;;;;;;4917459;29;20577;-70
2023/05/21 06:42:52;;;;;;;1999.90;999.90;;;;;;;;;;4917711;29;20209;-71
2023/05/21 06:45:37;;;;;;;1999.90;999.90;;;;;;;;;;4917826;29;20282;-72
2023/05/21 06:48:23;;;;;;;1999.90;999.90;;;;;;;;;;4917447;29;20230;-71
2023/05/21 06:51:08;;;;;;;1999.90;999.90;;;;;;;;;;4917659;29;20424;-71
2023/05/21 06:53:53;;;;;;;1999.90;999.90;;;;;;;;;;4917622;29;20575;-70
2023/05/21 06:56:38;;;;;;;1999.90;999.90;;;;;;;;;;4917460;29;20210;-71
2023/05/21 06:59:23;;;;;;;1999.90;999.90;;;;;;;;;;4917815;29;20210;-71
2023/05/21 07:02:08;;;;;;;1999.90;999.90;;;;;;;;;;4917166;29;20606;-71
2023/05/21 07:04:54;;;;;;;1999.90;999.90;;;;;;;;;;4917568;29;20210;-70
2023/05/21 07:07:39;;;;;;;1999.90;999.90;;;;;;;;;;4915118;29;20818;-71
2023/05/21 07:10:24;;;;;;;1999.90;999.90;;;;;;;;;;4915965;29;20743;-71
2023/05/21 07:13:09;;;;;;;1999.90;999.90;;;;;;;;;;4914865;29;20263;-70
2023/05/21 07:15:54;;;;;;;1999.90;999.90;;;;;;;;;;4915375;29;20722;-71
2023/05/21 07:18:38;;;;;;;1999.90;999.90;;;;;;;;;;4916630;29;20763;-71
2023/05/21 07:21:24;;;;;;;1999.90;999.90;;;;;;;;;;4913255;29;20260;-72
2023/05/21 07:24:10;;;;;;;1999.90;999.90;;;;;;;;;;4909138;29;20233;-71
2023/05/21 07:26:55;;;;;;;1999.90;999.90;;;;;;;;;;4915477;29;20585;-69
2023/05/21 07:29:39;;;;;;;1999.90;999.90;;;;;;;;;;4916056;29;20204;-71
2023/05/21 07:32:25;;;;;;;1999.90;999.90;;;;;;;;;;4916375;29;20247;-71
2023/05/21 07:35:10;;;;;;;1999.90;999.90;;;;;;;;;;4915515;29;20381;-71
2023/05/21 07:37:56;;;;;;;1999.90;999.90;;;;;;;;;;4916513;29;20289;-72
2023/05/21 07:40:41;;;;;;;1999.90;999.90;;;;;;;;;;4914547;29;20477;-71
2023/05/21 07:43:26;;;;;;;1999.90;999.90;;;;;;;;;;4916518;29;20215;-72
2023/05/21 07:46:11;;;;;;;1999.90;999.90;;;;;;;;;;4915060;29;20265;-71
2023/05/21 07:48:56;;;;;;;1999.90;999.90;;;;;;;;;;4916046;29;20587;-69
2023/05/21 07:51:41;;;;;;;1999.90;999.90;;;;;;;;;;4914228;29;20782;-72
2023/05/21 07:54:27;;;;;;;1999.90;999.90;;;;;;;;;;4911350;29;20227;-70
2023/05/21 07:57:12;;;;;;;1999.90;999.90;;;;;;;;;;4913619;29;20483;-70
2023/05/21 07:59:57;;;;;;;1999.90;999.90;;;;;;;;;;4914849;29;20221;-70
2023/05/21 08:02:42;;;;;;;1999.90;999.90;;;;;;;;;;4914373;29;20291;-70
2023/05/21 08:05:27;;;;;;;1999.90;999.90;;;;;;;;;;4911359;29;20342;-68
2023/05/21 08:08:12;;;;;;;1999.90;999.90;;;;;;;;;;4913811;29;20220;-69
2023/05/21 08:10:59;;;;;;;1999.90;999.90;;;;;;;;;;4911810;29;20230;-69
2023/05/21 08:13:44;;;;;;;1999.90;999.90;;;;;;;;;;4909163;29;20227;-69
2023/05/21 08:16:29;;;;;;;1999.90;999.90;;;;;;;;;;4912418;29;20362;-69
2023/05/21 08:19:13;;;;;;;1999.90;999.90;;;;;;;;;;4912150;29;20237;-69
2023/05/21 08:21:58;;;;;;;1999.90;999.90;;;;;;;;;;4909397;29;20229;-69
2023/05/21 08:24:43;;;;;;;1999.90;999.90;;;;;;;;;;4912257;29;20727;-69
2023/05/21 08:27:29;;;;;;;1999.90;999.90;;;;;;;;;;4913645;29;20210;-69
2023/05/21 08:30:14;;;;;;;1999.90;999.90;;;;;;;;;;4912936;29;20205;-69
2023/05/21 08:33:00;;;;;;;1999.90;999.90;;;;;;;;;;4911701;29;20230;-69
2023/05/21 08:35:45;;;;;;;1999.90;999.90;;;;;;;;;;4908642;29;20238;-68
2023/05/21 08:38:30;;;;;;;1999.90;999.90;;;;;;;;;;4908748;29;20221;-69
2023/05/21 08:41:16;;;;;;;1999.90;999.90;;;;;;;;;;4914353;29;20738;-70
2023/05/21 08:44:02;;;;;;;1999.90;999.90;;;;;;;;;;4914756;29;20464;-69
2023/05/21 08:46:49;;;;;;;1999.90;999.90;;;;;;;;;;4915468;29;20485;-68
2023/05/21 08:49:34;;;;;;;1999.90;999.90;;;;;;;;;;4915262;29;20226;-70
2023/05/21 08:52:20;;;;;;;1999.90;999.90;;;;;;;;;;4912036;29;20229;-68
2023/05/21 08:55:05;;;;;;;1999.90;999.90;;;;;;;;;;4913299;29;20217;-68
2023/05/21 08:57:50;;;;;;;1999.90;999.90;;;;;;;;;;4913365;29;20234;-69
2023/05/21 09:00:37;;;;;;;1999.90;999.90;;;;;;;;;;4911646;29;20676;-69
2023/05/21 09:03:22;;;;;;;1999.90;999.90;;;;;;;;;;4910934;29;20217;-68
2023/05/21 09:06:09;;;;;;;1999.90;999.90;;;;;;;;;;4910317;29;20269;-68
2023/05/21 09:08:58;;;;;;;1999.90;999.90;;;;;;;;;;4908701;29;20725;-68
2023/05/21 09:11:42;;;;;;;1999.90;999.90;;;;;;;;;;4909928;29;20234;-70
2023/05/21 09:14:28;;;;;;;1999.90;999.90;;;;;;;;;;4914791;29;20262;-70
2023/05/21 09:17:14;;;;;;;1999.90;999.90;;;;;;;;;;4912765;29;20555;-69
2023/05/21 09:20:11;;;;;;;1999.90;999.90;;;;;;;;;;4913397;29;20217;-70
2023/05/21 09:22:56;;;;;;;1999.90;999.90;;;;;;;;;;4915142;29;20206;-71
2023/05/21 09:25:41;;;;;;;1999.90;999.90;;;;;;;;;;4914943;29;20206;-70
2023/05/21 09:28:26;;;;;;;1999.90;999.90;;;;;;;;;;4914638;29;20222;-70
2023/05/21 09:31:10;;;;;;;1999.90;999.90;;;;;;;;;;4912214;29;20416;-70
2023/05/21 09:33:57;;;;;;;1999.90;999.90;;;;;;;;;;4914931;29;20209;-71
2023/05/21 09:36:42;;;;;;;1999.90;999.90;;;;;;;;;;4914731;29;20209;-71
2023/05/21 09:39:27;;;;;;;1999.90;999.90;;;;;;;;;;4914636;29;20202;-71
2023/05/21 09:42:12;;;;;;;1999.90;999.90;;;;;;;;;;4914759;29;20282;-70
2023/05/21 09:44:58;;;;;;;1999.90;999.90;;;;;;;;;;4914625;29;20229;-70
2023/05/21 09:47:43;;;;;;;1999.90;999.90;;;;;;;;;;4915009;29;20210;-70
2023/05/21 09:50:30;;;;;;;1999.90;999.90;;;;;;;;;;4908736;29;20219;-70
2023/05/21 09:53:15;;;;;;;1999.90;999.90;;;;;;;;;;4910531;29;20269;-69
2023/05/21 09:56:00;;;;;;;1999.90;999.90;;;;;;;;;;4916095;29;20594;-70
2023/05/21 09:58:45;;;;;;;1999.90;999.90;;;;;;;;;;4914877;29;20783;-69
2023/05/21 10:01:31;;;;;;;1999.90;999.90;;;;;;;;;;4915744;29;20238;-69
2023/05/21 10:04:17;;;;;;;1999.90;999.90;;;;;;;;;;4915966;29;20210;-70
2023/05/21 10:07:03;;;;;;;1999.90;999.90;;;;;;;;;;4913316;29;20217;-69
2023/05/21 10:09:48;;;;;;;1999.90;999.90;;;;;;;;;;4912439;29;20241;-70
2023/05/21 10:12:34;;;;;;;1999.90;999.90;;;;;;;;;;4914962;29;20242;-70
2023/05/21 10:15:22;;;;;;;1999.90;999.90;;;;;;;;;;4915621;29;20217;-71
2023/05/21 10:18:08;;;;;;;1999.90;999.90;;;;;;;;;;4916696;29;20210;-70
2023/05/21 10:20:53;;;;;;;1999.90;999.90;;;;;;;;;;4917370;29;20424;-69
2023/05/21 10:23:41;;;;;;;1999.90;999.90;;;;;;;;;;4917950;29;20706;-70
2023/05/21 10:26:26;;;;;;;1999.90;999.90;;;;;;;;;;4917228;29;20213;-70
2023/05/21 10:29:12;;;;;;;1999.90;999.90;;;;;;;;;;4917477;29;20321;-70
2023/05/21 10:31:57;;;;;;;1999.90;999.90;;;;;;;;;;4913277;29;20606;-70
2023/05/21 10:34:43;;;;;;;1999.90;999.90;;;;;;;;;;4911574;29;20222;-70
2023/05/21 10:37:28;;;;;;;1999.90;999.90;;;;;;;;;;4914260;29;20414;-68
2023/05/21 10:40:15;;;;;;;1999.90;999.90;;;;;;;;;;4914548;29;20250;-68
2023/05/21 10:43:13;;;;;;;1999.90;999.90;;;;;;;;;;4915429;29;20214;-69
2023/05/21 10:46:08;;;;;;;1999.90;999.90;;;;;;;;;;4913724;29;20223;-69
2023/05/21 10:49:00;;;;;;;1999.90;999.90;;;;;;;;;;4911648;29;20998;-69
2023/05/21 10:51:49;;;;;;;1999.90;999.90;;;;;;;;;;4913880;29;20375;-69
2023/05/21 10:54:53;;;;;;;1999.90;999.90;;;;;;;;;;4912829;29;20299;-71
2023/05/21 10:57:46;;;;;;;1999.90;999.90;;;;;;;;;;4915122;29;21002;-68
2023/05/21 11:00:31;;;;;;;1999.90;999.90;;;;;;;;;;4913660;29;20339;-69
2023/05/21 11:03:16;;;;;;;1999.90;999.90;;;;;;;;;;4913603;29;20223;-69
2023/05/21 11:06:04;;;;;;;1999.90;999.90;;;;;;;;;;4912159;29;20715;-69
2023/05/21 11:08:52;;;;;;;1999.90;999.90;;;;;;;;;;4912282;29;20364;-69
2023/05/21 11:11:44;;;;;;;1999.90;999.90;;;;;;;;;;4914789;29;20331;-69
2023/05/21 11:14:35;;;;;;;1999.90;999.90;;;;;;;;;;4908786;29;20439;-69
2023/05/21 11:17:35;;;;;;;1999.90;999.90;;;;;;;;;;4912807;29;20223;-69
2023/05/21 11:20:21;;;;;;;1999.90;999.90;;;;;;;;;;4914551;29;20235;-69
2023/05/21 11:23:06;;;;;;;1999.90;999.90;;;;;;;;;;4913821;29;20659;-70
2023/05/21 11:26:00;;;;;;;1999.90;999.90;;;;;;;;;;4913078;29;20234;-70
2023/05/21 11:28:45;;;;;;;1999.90;999.90;;;;;;;;;;4911233;29;20248;-69
2023/05/21 11:31:36;;;;;;;1999.90;999.90;;;;;;;;;;4914758;29;20235;-71
2023/05/21 11:34:27;;;;;;;1999.90;999.90;;;;;;;;;;4912368;29;20761;-70
2023/05/21 11:37:26;;;;;;;1999.90;999.90;;;;;;;;;;4910767;29;20630;-70
2023/05/21 11:40:32;;;;;;;1999.90;999.90;;;;;;;;;;4912933;29;20200;-70
2023/05/21 11:43:18;;;;;;;1999.90;999.90;;;;;;;;;;4912524;29;21036;-71
2023/05/21 11:46:03;;;;;;;1999.90;999.90;;;;;;;;;;4914555;29;20213;-69
2023/05/21 11:48:50;;;;;;;1999.90;999.90;;;;;;;;;;4911715;29;20226;-69
2023/05/21 11:51:35;;;;;;;1999.90;999.90;;;;;;;;;;4913007;29;20592;-68
2023/05/21 11:54:20;;;;;;;1999.90;999.90;;;;;;;;;;4912783;29;20214;-68
2023/05/21 11:57:06;;;;;;;1999.90;999.90;;;;;;;;;;4911785;29;20223;-70
2023/05/21 11:59:51;;;;;;;1999.90;999.90;;;;;;;;;;4911562;29;21652;-70
2023/05/21 12:02:36;;;;;;;1999.90;999.90;;;;;;;;;;4913908;29;20239;-69
2023/05/21 12:05:23;;;;;;;1999.90;999.90;;;;;;;;;;4911800;29;20215;-69
2023/05/21 12:08:09;;;;;;;1999.90;999.90;;;;;;;;;;4912260;29;20232;-69
2023/05/21 12:10:55;;;;;;;1999.90;999.90;;;;;;;;;;4913083;29;20239;-70
2023/05/21 12:13:40;;;;;;;1999.90;999.90;;;;;;;;;;4913888;29;20722;-69
2023/05/21 12:16:25;;;;;;;1999.90;999.90;;;;;;;;;;4912404;29;20218;-70
2023/05/21 12:19:10;;;;;;;1999.90;999.90;;;;;;;;;;4912866;29;20214;-68
2023/05/21 12:21:57;;;;;;;1999.90;999.90;;;;;;;;;;4911848;29;20248;-68
2023/05/21 12:24:43;;;;;;;1999.90;999.90;;;;;;;;;;4909314;29;20219;-69
2023/05/21 12:27:29;;;;;;;1999.90;999.90;;;;;;;;;;4912406;29;20215;-70
2023/05/21 12:30:14;;;;;;;1999.90;999.90;;;;;;;;;;4912069;29;20237;-70
2023/05/21 12:33:00;;;;;;;1999.90;999.90;;;;;;;;;;4912790;29;20213;-70
2023/05/21 12:35:47;;;;;;;1999.90;999.90;;;;;;;;;;4912955;29;20219;-70
2023/05/21 12:38:33;;;;;;;1999.90;999.90;;;;;;;;;;4910657;29;20219;-71
2023/05/21 12:41:18;;;;;;;1999.90;999.90;;;;;;;;;;4908242;29;20583;-70
2023/05/21 12:44:04;;;;;;;1999.90;999.90;;;;;;;;;;4911814;29;20639;-71
2023/05/21 12:46:49;;;;;;;1999.90;999.90;;;;;;;;;;4911238;29;20447;-69
2023/05/21 12:49:35;;;;;;;1999.90;999.90;;;;;;;;;;4912876;29;20228;-70
2023/05/21 12:52:20;;;;;;;1999.90;999.90;;;;;;;;;;4913284;29;20335;-70
2023/05/21 12:55:09;;;;;;;1999.90;999.90;;;;;;;;;;4911128;29;20219;-69
2023/05/21 12:58:01;;;;;;;1999.90;999.90;;;;;;;;;;4895904;29;20581;-70
2023/05/21 13:00:46;;;;;;;1999.90;999.90;;;;;;;;;;4904457;29;20230;-69
2023/05/21 13:03:31;;;;;;;1999.90;999.90;;;;;;;;;;4915390;29;20265;-69
2023/05/21 13:06:17;;;;;;;1999.90;999.90;;;;;;;;;;4912433;29;20585;-70
2023/05/21 13:09:02;;;;;;;1999.90;999.90;;;;;;;;;;4911538;29;20229;-69
2023/05/21 13:11:48;;;;;;;1999.90;999.90;;;;;;;;;;4913437;29;20255;-70
2023/05/21 13:14:34;;;;;;;1999.90;999.90;;;;;;;;;;4913918;29;20736;-69
2023/05/21 13:17:19;;;;;;;1999.90;999.90;;;;;;;;;;4920346;29;20218;-69
2023/05/21 13:20:06;;;;;;;1999.90;999.90;;;;;;;;;;4913721;29;20491;-69
2023/05/21 13:22:51;;;;;;;1999.90;999.90;;;;;;;;;;4914228;29;20224;-69
2023/05/21 13:25:36;;;;;;;1999.90;999.90;;;;;;;;;;4914765;29;20217;-71
2023/05/21 13:28:23;;;;;;;1999.90;999.90;;;;;;;;;;4915240;29;20310;-69
2023/05/21 13:31:08;;;;;;;1999.90;999.90;;;;;;;;;;4918645;29;20244;-69
2023/05/21 13:33:53;;;;;;;1999.90;999.90;;;;;;;;;;4918282;29;20236;-69
2023/05/21 13:36:38;;;;;;;1999.90;999.90;;;;;;;;;;4917346;29;20466;-69
2023/05/21 13:39:26;;;;;;;1999.90;999.90;;;;;;;;;;4918001;29;20417;-69
2023/05/21 13:42:11;;;;;;;1999.90;999.90;;;;;;;;;;4918505;29;20740;-69
2023/05/21 13:44:57;;;;;;;1999.90;999.90;;;;;;;;;;4918536;29;20274;-69
2023/05/21 13:47:43;;;;;;;1999.90;999.90;;;;;;;;;;4917621;29;20625;-69
2023/05/21 13:50:28;;;;;;;1999.90;999.90;;;;;;;;;;4917050;29;20382;-69
2023/05/21 13:53:13;;;;;;;1999.90;999.90;;;;;;;;;;4928931;29;20215;-69
2023/05/21 13:55:58;;;;;;;1999.90;999.90;;;;;;;;;;4912359;29;20216;-69
2023/05/21 13:58:43;;;;;;;1999.90;999.90;;;;;;;;;;4920679;29;20276;-69
2023/05/21 14:01:30;;;;;;;1999.90;999.90;;;;;;;;;;4917395;29;20612;-70
2023/05/21 14:04:15;;;;;;;1999.90;999.90;;;;;;;;;;4916666;29;20220;-70
2023/05/21 14:07:00;;;;;;;1999.90;999.90;;;;;;;;;;4912785;29;20277;-70
2023/05/21 14:09:46;;;;;;;1999.90;999.90;;;;;;;;;;4914176;29;20828;-71
2023/05/21 14:12:32;;;;;;;1999.90;999.90;;;;;;;;;;4918569;29;20231;-71
2023/05/21 14:15:17;;;;;;;1999.90;999.90;;;;;;;;;;4922437;29;20212;-70
2023/05/21 14:18:06;;;;;;;1999.90;999.90;;;;;;;;;;4917827;29;20230;-70
2023/05/21 14:20:51;;;;;;;1999.90;999.90;;;;;;;;;;4914574;29;20277;-71
2023/05/21 14:23:36;;;;;;;1999.90;999.90;;;;;;;;;;4917820;29;20217;-70
2023/05/21 14:26:21;;;;;;;1999.90;999.90;;;;;;;;;;4917852;29;20225;-70
2023/05/21 14:29:06;;;;;;;1999.90;999.90;;;;;;;;;;4917495;29;20225;-70
2023/05/21 14:31:51;;;;;;;1999.90;999.90;;;;;;;;;;4917583;29;20240;-72
2023/05/21 14:34:39;;;;;;;1999.90;999.90;;;;;;;;;;4914717;29;20221;-72
2023/05/21 14:37:24;;;;;;;1999.90;999.90;;;;;;;;;;4917433;29;20714;-71
2023/05/21 14:40:09;;;;;;;1999.90;999.90;;;;;;;;;;4917323;29;20224;-71
2023/05/21 14:42:54;;;;;;;1999.90;999.90;;;;;;;;;;4917807;29;20205;-71
2023/05/21 14:45:40;;;;;;;1999.90;999.90;;;;;;;;;;4917676;29;20735;-72
2023/05/21 14:48:25;;;;;;;1999.90;999.90;;;;;;;;;;4917492;29;20221;-70
2023/05/21 14:51:12;;;;;;;1999.90;999.90;;;;;;;;;;4917358;29;20232;-72
2023/05/21 14:53:57;;;;;;;1999.90;999.90;;;;;;;;;;4917654;29;20213;-71
2023/05/21 14:56:42;;;;;;;1999.90;999.90;;;;;;;;;;4916062;29;20427;-71
2023/05/21 14:59:27;;;;;;;1999.90;999.90;;;;;;;;;;4917338;29;20254;-71
2023/05/21 15:02:12;;;;;;;1999.90;999.90;;;;;;;;;;4917305;29;20598;-71
2023/05/21 15:04:57;;;;;;;1999.90;999.90;;;;;;;;;;4917509;29;20734;-71
2023/05/21 15:07:43;;;;;;;1999.90;999.90;;;;;;;;;;4917303;29;20412;-72
2023/05/21 15:10:28;;;;;;;1999.90;999.90;;;;;;;;;;4916970;29;20613;-71
2023/05/21 15:13:13;;;;;;;1999.90;999.90;;;;;;;;;;4916168;29;20976;-71
2023/05/21 15:15:58;;;;;;;1999.90;999.90;;;;;;;;;;4917227;29;20277;-71
2023/05/21 15:18:43;;;;;;;1999.90;999.90;;;;;;;;;;4916986;29;20214;-72
2023/05/21 15:21:28;;;;;;;1999.90;999.90;;;;;;;;;;4917179;29;20714;-70
2023/05/21 15:24:14;;;;;;;1999.90;999.90;;;;;;;;;;4917161;29;20213;-71
2023/05/21 15:26:59;;;;;;;1999.90;999.90;;;;;;;;;;4917033;29;20694;-71
2023/05/21 15:29:44;;;;;;;1999.90;999.90;;;;;;;;;;4916740;29;20513;-71
2023/05/21 15:32:29;;;;;;;1999.90;999.90;;;;;;;;;;4916858;29;20233;-70
2023/05/21 15:35:14;;;;;;;1999.90;999.90;;;;;;;;;;4916907;29;20224;-71
2023/05/21 15:37:59;;;;;;;1999.90;999.90;;;;;;;;;;4916895;29;20212;-70
2023/05/21 15:40:47;;;;;;;1999.90;999.90;;;;;;;;;;4917367;29;20241;-70
2023/05/21 15:43:32;;;;;;;1999.90;999.90;;;;;;;;;;4916865;29;20487;-69
2023/05/21 15:46:17;;;;;;;1999.90;999.90;;;;;;;;;;4917642;29;20343;-70
2023/05/21 15:49:02;;;;;;;1999.90;999.90;;;;;;;;;;4916358;29;20210;-70
2023/05/21 15:51:47;;;;;;;1999.90;999.90;;;;;;;;;;4915599;29;20237;-71
2023/05/21 15:54:31;;;;;;;1999.90;999.90;;;;;;;;;;4916514;29;20222;-70
2023/05/21 15:57:18;;;;;;;1999.90;999.90;;;;;;;;;;4916440;29;20680;-70
2023/05/21 16:00:03;;;;;;;1999.90;999.90;;;;;;;;;;4916158;29;20480;-70
2023/05/21 16:02:48;;;;;;;1999.90;999.90;;;;;;;;;;4916342;29;20685;-70
2023/05/21 16:05:33;;;;;;;1999.90;999.90;;;;;;;;;;4916111;29;20209;-70
2023/05/21 16:08:18;;;;;;;1999.90;999.90;;;;;;;;;;4916163;29;20227;-70
2023/05/21 16:11:03;;;;;;;1999.90;999.90;;;;;;;;;;4916055;29;20709;-69
2023/05/21 16:13:50;;;;;;;1999.90;999.90;;;;;;;;;;4916191;29;20253;-70
2023/05/21 16:16:35;;;;;;;1999.90;999.90;;;;;;;;;;4916180;29;20212;-69
2023/05/21 16:19:20;;;;;;;1999.90;999.90;;;;;;;;;;4915965;29;20599;-70
2023/05/21 16:22:05;;;;;;;1999.90;999.90;;;;;;;;;;4915988;29;20230;-70
2023/05/21 16:24:49;;;;;;;1999.90;999.90;;;;;;;;;;4916296;29;20213;-70
2023/05/21 16:27:35;;;;;;;1999.90;999.90;;;;;;;;;;4915690;29;20206;-71
2023/05/21 16:30:21;;;;;;;1999.90;999.90;;;;;;;;;;4915437;29;20606;-69
2023/05/21 16:33:06;;;;;;;1999.90;999.90;;;;;;;;;;4915947;29;20257;-69
2023/05/21 16:35:51;;;;;;;1999.90;999.90;;;;;;;;;;4915734;29;20696;-70
2023/05/21 16:38:36;;;;;;;1999.90;999.90;;;;;;;;;;4915653;29;20709;-70
2023/05/21 16:41:21;;;;;;;1999.90;999.90;;;;;;;;;;4915794;29;20717;-69
2023/05/21 16:44:06;;;;;;;1999.90;999.90;;;;;;;;;;4915802;29;20242;-69
2023/05/21 16:46:53;;;;;;;1999.90;999.90;;;;;;;;;;4915809;29;20405;-71
2023/05/21 16:49:37;;;;;;;1999.90;999.90;;;;;;;;;;4914905;29;20547;-70
2023/05/21 16:52:22;;;;;;;1999.90;999.90;;;;;;;;;;4915512;29;20218;-70
2023/05/21 16:55:08;;;;;;;1999.90;999.90;;;;;;;;;;4915701;29;20214;-70
2023/05/21 16:57:53;;;;;;;1999.90;999.90;;;;;;;;;;4915583;29;20210;-69
2023/05/21 17:00:37;;;;;;;1999.90;999.90;;;;;;;;;;4915322;29;20197;-69
2023/05/21 17:03:24;;;;;;;1999.90;999.90;;;;;;;;;;4917355;29;20574;-71
2023/05/21 17:06:08;;;;;;;1999.90;999.90;;;;;;;;;;4919542;29;20701;-70
2023/05/21 17:08:53;;;;;;;1999.90;999.90;;;;;;;;;;4919450;29;20219;-70
2023/05/21 17:11:40;;;;;;;1999.90;999.90;;;;;;;;;;4919112;29;20623;-70
2023/05/21 17:14:26;;;;;;;1999.90;999.90;;;;;;;;;;4919303;29;20265;-71
2023/05/21 17:17:11;;;;;;;1999.90;999.90;;;;;;;;;;4919397;29;20208;-70
2023/05/21 17:19:58;;;;;;;1999.90;999.90;;;;;;;;;;4919532;29;20718;-70
2023/05/21 17:22:43;;;;;;;1999.90;999.90;;;;;;;;;;4918919;29;20714;-70
2023/05/21 17:25:27;;;;;;;1999.90;999.90;;;;;;;;;;4919080;29;20213;-71
2023/05/21 17:28:12;;;;;;;1999.90;999.90;;;;;;;;;;4919031;29;20248;-71
2023/05/21 17:30:57;;;;;;;1999.90;999.90;;;;;;;;;;4918838;29;20284;-70
2023/05/21 17:33:43;;;;;;;1999.90;999.90;;;;;;;;;;4918903;29;20216;-70
2023/05/21 17:36:29;;;;;;;1999.90;999.90;;;;;;;;;;4918994;29;20314;-70
2023/05/21 17:39:14;;;;;;;1999.90;999.90;;;;;;;;;;4918558;29;20212;-70
2023/05/21 17:41:59;;;;;;;1999.90;999.90;;;;;;;;;;4918771;29;20723;-70
2023/05/21 17:44:44;;;;;;;1999.90;999.90;;;;;;;;;;4918909;29;20217;-71
2023/05/21 17:47:29;;;;;;;1999.90;999.90;;;;;;;;;;4918686;29;20219;-71
2023/05/21 17:50:13;;;;;;;1999.90;999.90;;;;;;;;;;4918357;29;20213;-70
2023/05/21 17:53:00;;;;;;;1999.90;999.90;;;;;;;;;;4918760;29;20215;-71
2023/05/21 17:55:45;;;;;;;1999.90;999.90;;;;;;;;;;4918468;29;20217;-71
2023/05/21 17:58:30;;;;;;;1999.90;999.90;;;;;;;;;;4918414;29;20240;-69
2023/05/21 18:01:15;;;;;;;1999.90;999.90;;;;;;;;;;4918441;29;20277;-70
2023/05/21 18:03:59;;;;;;;1999.90;999.90;;;;;;;;;;4919041;29;20213;-71
2023/05/21 18:06:44;;;;;;;1999.90;999.90;;;;;;;;;;4918270;29;20208;-71
2023/05/21 18:09:30;;;;;;;1999.90;999.90;;;;;;;;;;4918042;29;20551;-70
2023/05/21 18:12:15;;;;;;;1999.90;999.90;;;;;;;;;;4918003;29;20238;-70
2023/05/21 18:15:01;;;;;;;1999.90;999.90;;;;;;;;;;4917664;29;20217;-70
2023/05/21 18:17:46;;;;;;;1999.90;999.90;;;;;;;;;;4918339;29;20784;-68
2023/05/21 18:20:32;;;;;;;1999.90;999.90;;;;;;;;;;4917833;29;20726;-71
2023/05/21 18:23:17;;;;;;;1999.90;999.90;;;;;;;;;;4918222;29;20277;-71
2023/05/21 18:26:04;;;;;;;1999.90;999.90;;;;;;;;;;4918172;29;20216;-70
2023/05/21 18:28:49;;;;;;;1999.90;999.90;;;;;;;;;;4917612;29;20284;-70
2023/05/21 18:31:34;;;;;;;1999.90;999.90;;;;;;;;;;4917814;29;20233;-70
2023/05/21 18:34:19;;;;;;;1999.90;999.90;;;;;;;;;;4918041;29;20301;-70
2023/05/21 18:37:05;;;;;;;1999.90;999.90;;;;;;;;;;4917976;29;20210;-70
2023/05/21 18:39:50;;;;;;;1999.90;999.90;;;;;;;;;;4917708;29;20210;-69
2023/05/21 18:42:36;;;;;;;1999.90;999.90;;;;;;;;;;4917829;29;20226;-70
2023/05/21 18:45:21;;;;;;;1999.90;999.90;;;;;;;;;;4917896;29;20217;-68
2023/05/21 18:48:06;;;;;;;1999.90;999.90;;;;;;;;;;4917569;29;20212;-69
2023/05/21 18:50:51;;;;;;;1999.90;999.90;;;;;;;;;;4917254;29;20272;-69
2023/05/21 18:53:37;;;;;;;1999.90;999.90;;;;;;;;;;4911995;29;20322;-68
2023/05/21 18:56:22;;;;;;;1999.90;999.90;;;;;;;;;;4915846;29;20219;-68
2023/05/21 18:59:08;;;;;;;1999.90;999.90;;;;;;;;;;4917347;29;20215;-68
2023/05/21 19:01:53;;;;;;;1999.90;999.90;;;;;;;;;;4916114;29;20295;-69
2023/05/21 19:04:38;;;;;;;1999.90;999.90;;;;;;;;;;4917378;29;20216;-68
2023/05/21 19:07:24;;;;;;;1999.90;999.90;;;;;;;;;;4916141;29;20283;-68
2023/05/21 19:10:10;;;;;;;1999.90;999.90;;;;;;;;;;4915937;29;20269;-68
2023/05/21 19:12:56;;;;;;;1999.90;999.90;;;;;;;;;;4916876;29;20313;-69
2023/05/21 19:15:45;;;;;;;1999.90;999.90;;;;;;;;;;4915920;29;20440;-68
2023/05/21 19:18:31;;;;;;;1999.90;999.90;;;;;;;;;;4916905;29;20203;-68
2023/05/21 19:21:15;;;;;;;1999.90;999.90;;;;;;;;;;4917015;29;20235;-68
2023/05/21 19:24:00;;;;;;;1999.90;999.90;;;;;;;;;;4916365;29;20782;-68
2023/05/21 19:26:45;;;;;;;1999.90;999.90;;;;;;;;;;4915633;29;20329;-68